Kent, Ohio
Current Conditions -  °F | °C
As of 5:38 PM on Saturday 25 Oct 2014 (Local Time) from KPOV Reporting Station
Clear Clear  
Wind Chill: 68°   Ceiling: Unl
Heat Index: 68°   Visibility: 10mi
Dew Point: 43°   Wind: 18mph
Humidity: 40%   Direction: 280°W
Pressure: 29.74"   Gusts: 25mph
Location:  41.15°N, 81.36°W
Report Text: KPOV 252138Z AUTO 28016G22KT 10SM CLR 20/06 A2974 RMK AO2 T01980059
Loading
Personal Weather Stations






























Interactive Weather Map New forecast layout! Learn more

10-Day Weather Forecast

Advertisements
Track Severe Weather on mobile